sensor_id;sensor_type;location;lat;lon;timestamp;temperature;humidity
77613;DHT22;66777;52.282;5.960;2023-06-24T00:00:19;17.60;74.80
77613;DHT22;66777;52.282;5.960;2023-06-24T00:02:46;17.60;75.00
77613;DHT22;66777;52.282;5.960;2023-06-24T00:05:30;17.50;75.20
77613;DHT22;66777;52.282;5.960;2023-06-24T00:08:25;17.40;75.50
77613;DHT22;66777;52.282;5.960;2023-06-24T00:10:59;17.50;75.40
77613;DHT22;66777;52.282;5.960;2023-06-24T00:13:26;17.40;75.50
77613;DHT22;66777;52.282;5.960;2023-06-24T00:15:52;17.40;75.60
77613;DHT22;66777;52.282;5.960;2023-06-24T00:18:19;17.40;75.60
77613;DHT22;66777;52.282;5.960;2023-06-24T00:20:47;17.40;75.40
77613;DHT22;66777;52.282;5.960;2023-06-24T00:23:25;17.40;75.30
77613;DHT22;66777;52.282;5.960;2023-06-24T00:25:52;17.50;75.20
77613;DHT22;66777;52.282;5.960;2023-06-24T00:28:21;17.50;75.10
77613;DHT22;66777;52.282;5.960;2023-06-24T00:30:48;17.60;75.10
77613;DHT22;66777;52.282;5.960;2023-06-24T00:33:23;17.60;74.90
77613;DHT22;66777;52.282;5.960;2023-06-24T00:35:50;17.60;75.00
77613;DHT22;66777;52.282;5.960;2023-06-24T00:38:25;17.50;75.10
77613;DHT22;66777;52.282;5.960;2023-06-24T00:40:51;17.50;75.10
77613;DHT22;66777;52.282;5.960;2023-06-24T00:43:23;17.40;75.40
77613;DHT22;66777;52.282;5.960;2023-06-24T00:45:53;17.30;75.60
77613;DHT22;66777;52.282;5.960;2023-06-24T00:48:25;17.20;75.80
77613;DHT22;66777;52.282;5.960;2023-06-24T00:50:52;17.30;75.80
77613;DHT22;66777;52.282;5.960;2023-06-24T00:53:25;17.20;75.70
77613;DHT22;66777;52.282;5.960;2023-06-24T00:55:52;17.30;75.70
77613;DHT22;66777;52.282;5.960;2023-06-24T00:58:32;17.30;75.60
77613;DHT22;66777;52.282;5.960;2023-06-24T01:01:06;17.40;75.80
77613;DHT22;66777;52.282;5.960;2023-06-24T01:03:37;17.50;75.50
77613;DHT22;66777;52.282;5.960;2023-06-24T01:06:15;17.50;75.60
77613;DHT22;66777;52.282;5.960;2023-06-24T01:08:41;17.50;75.30
77613;DHT22;66777;52.282;5.960;2023-06-24T01:11:07;17.50;75.10
77613;DHT22;66777;52.282;5.960;2023-06-24T01:13:47;17.60;75.00
77613;DHT22;66777;52.282;5.960;2023-06-24T01:39:52;17.20;75.70
77613;DHT22;66777;52.282;5.960;2023-06-24T01:42:21;17.00;76.20
77613;DHT22;66777;52.282;5.960;2023-06-24T01:44:51;17.00;76.30
77613;DHT22;66777;52.282;5.960;2023-06-24T01:47:21;17.00;76.50
77613;DHT22;66777;52.282;5.960;2023-06-24T01:50:01;17.00;76.10
77613;DHT22;66777;52.282;5.960;2023-06-24T01:52:29;17.00;76.10
77613;DHT22;66777;52.282;5.960;2023-06-24T01:54:57;17.00;76.10
77613;DHT22;66777;52.282;5.960;2023-06-24T01:57:24;17.00;76.10
77613;DHT22;66777;52.282;5.960;2023-06-24T01:59:52;17.00;76.10
77613;DHT22;66777;52.282;5.960;2023-06-24T02:02:28;17.00;76.20
77613;DHT22;66777;52.282;5.960;2023-06-24T02:04:55;17.00;76.40
77613;DHT22;66777;52.282;5.960;2023-06-24T02:07:22;17.10;75.90
77613;DHT22;66777;52.282;5.960;2023-06-24T02:09:50;17.00;75.90
77613;DHT22;66777;52.282;5.960;2023-06-24T02:12:22;17.10;75.80
77613;DHT22;66777;52.282;5.960;2023-06-24T02:14:55;17.20;75.60
77613;DHT22;66777;52.282;5.960;2023-06-24T02:17:24;17.20;75.40
77613;DHT22;66777;52.282;5.960;2023-06-24T02:19:52;17.20;75.40
77613;DHT22;66777;52.282;5.960;2023-06-24T02:22:20;17.20;75.20
77613;DHT22;66777;52.282;5.960;2023-06-24T02:24:49;17.20;75.10
77613;DHT22;66777;52.282;5.960;2023-06-24T02:27:42;17.10;75.40
77613;DHT22;66777;52.282;5.960;2023-06-24T02:30:09;17.10;75.50
77613;DHT22;66777;52.282;5.960;2023-06-24T02:32:36;17.00;75.70
77613;DHT22;66777;52.282;5.960;2023-06-24T02:35:08;17.00;75.80
77613;DHT22;66777;52.282;5.960;2023-06-24T02:37:34;16.80;76.00
77613;DHT22;66777;52.282;5.960;2023-06-24T02:40:09;16.90;76.20
77613;DHT22;66777;52.282;5.960;2023-06-24T02:42:39;16.90;75.90
77613;DHT22;66777;52.282;5.960;2023-06-24T02:45:06;16.90;75.80
77613;DHT22;66777;52.282;5.960;2023-06-24T02:47:33;17.00;75.70
77613;DHT22;66777;52.282;5.960;2023-06-24T02:50:03;17.00;75.50
77613;DHT22;66777;52.282;5.960;2023-06-24T02:52:30;17.00;75.30
77613;DHT22;66777;52.282;5.960;2023-06-24T02:54:59;17.10;75.30
77613;DHT22;66777;52.282;5.960;2023-06-24T02:57:25;17.20;75.10
77613;DHT22;66777;52.282;5.960;2023-06-24T03:00:03;17.20;75.00
77613;DHT22;66777;52.282;5.960;2023-06-24T03:02:35;17.20;75.00
77613;DHT22;66777;52.282;5.960;2023-06-24T03:05:16;17.20;75.00
77613;DHT22;66777;52.282;5.960;2023-06-24T03:07:47;17.20;74.90
77613;DHT22;66777;52.282;5.960;2023-06-24T03:10:13;17.30;74.80
77613;DHT22;66777;52.282;5.960;2023-06-24T03:12:40;17.40;74.80
77613;DHT22;66777;52.282;5.960;2023-06-24T03:15:10;17.30;74.80
77613;DHT22;66777;52.282;5.960;2023-06-24T03:17:37;17.20;75.00
77613;DHT22;66777;52.282;5.960;2023-06-24T03:20:03;17.00;75.40
77613;DHT22;66777;52.282;5.960;2023-06-24T03:22:30;16.90;75.70
77613;DHT22;66777;52.282;5.960;2023-06-24T03:24:56;16.80;75.90
77613;DHT22;66777;52.282;5.960;2023-06-24T03:27:23;16.70;76.20
77613;DHT22;66777;52.282;5.960;2023-06-24T03:29:59;16.50;76.50
77613;DHT22;66777;52.282;5.960;2023-06-24T03:32:25;16.40;76.80
77613;DHT22;66777;52.282;5.960;2023-06-24T03:34:51;16.50;76.70
77613;DHT22;66777;52.282;5.960;2023-06-24T03:37:16;16.50;76.60
77613;DHT22;66777;52.282;5.960;2023-06-24T03:39:50;16.50;76.60
77613;DHT22;66777;52.282;5.960;2023-06-24T03:42:15;16.50;76.60
77613;DHT22;66777;52.282;5.960;2023-06-24T03:44:41;16.60;76.40
77613;DHT22;66777;52.282;5.960;2023-06-24T03:47:27;16.60;76.20
77613;DHT22;66777;52.282;5.960;2023-06-24T03:49:52;16.60;76.30
77613;DHT22;66777;52.282;5.960;2023-06-24T03:52:18;16.70;76.20
77613;DHT22;66777;52.282;5.960;2023-06-24T03:54:48;16.70;76.10
77613;DHT22;66777;52.282;5.960;2023-06-24T03:57:16;16.80;75.90
77613;DHT22;66777;52.282;5.960;2023-06-24T03:59:41;16.70;76.10
77613;DHT22;66777;52.282;5.960;2023-06-24T04:02:07;16.70;76.00
77613;DHT22;66777;52.282;5.960;2023-06-24T04:04:45;16.70;75.90
77613;DHT22;66777;52.282;5.960;2023-06-24T04:07:12;16.50;76.20
77613;DHT22;66777;52.282;5.960;2023-06-24T04:09:39;16.40;76.80
77613;DHT22;66777;52.282;5.960;2023-06-24T04:12:11;16.30;77.00
77613;DHT22;66777;52.282;5.960;2023-06-24T04:14:39;16.10;77.40
77613;DHT22;66777;52.282;5.960;2023-06-24T04:17:04;16.10;77.60
77613;DHT22;66777;52.282;5.960;2023-06-24T04:19:30;16.10;77.50
77613;DHT22;66777;52.282;5.960;2023-06-24T04:22:00;16.20;77.50
77613;DHT22;66777;52.282;5.960;2023-06-24T04:27:31;16.40;76.90
77613;DHT22;66777;52.282;5.960;2023-06-24T04:30:22;16.60;76.40
77613;DHT22;66777;52.282;5.960;2023-06-24T04:32:48;16.60;76.20
77613;DHT22;66777;52.282;5.960;2023-06-24T04:35:14;16.60;76.20
77613;DHT22;66777;52.282;5.960;2023-06-24T04:37:41;16.60;76.30
77613;DHT22;66777;52.282;5.960;2023-06-24T04:40:07;16.60;76.50
77613;DHT22;66777;52.282;5.960;2023-06-24T04:42:36;16.70;76.40
77613;DHT22;66777;52.282;5.960;2023-06-24T04:45:02;16.80;76.20
77613;DHT22;66777;52.282;5.960;2023-06-24T04:47:40;16.80;76.00
77613;DHT22;66777;52.282;5.960;2023-06-24T04:50:07;16.90;76.10
77613;DHT22;66777;52.282;5.960;2023-06-24T04:52:37;16.90;76.20
77613;DHT22;66777;52.282;5.960;2023-06-24T04:55:07;16.90;76.10
77613;DHT22;66777;52.282;5.960;2023-06-24T04:57:38;17.00;76.20
77613;DHT22;66777;52.282;5.960;2023-06-24T05:00:06;17.00;76.20
77613;DHT22;66777;52.282;5.960;2023-06-24T05:02:36;16.90;76.50
77613;DHT22;66777;52.282;5.960;2023-06-24T05:05:02;17.00;76.50
77613;DHT22;66777;52.282;5.960;2023-06-24T05:07:28;17.00;76.60
77613;DHT22;66777;52.282;5.960;2023-06-24T05:10:17;17.00;76.70
77613;DHT22;66777;52.282;5.960;2023-06-24T05:13:05;17.20;76.50
77613;DHT22;66777;52.282;5.960;2023-06-24T05:15:32;17.30;76.40
77613;DHT22;66777;52.282;5.960;2023-06-24T05:17:57;17.40;76.20
77613;DHT22;66777;52.282;5.960;2023-06-24T05:20:23;17.50;76.20
77613;DHT22;66777;52.282;5.960;2023-06-24T05:23:03;17.50;76.00
77613;DHT22;66777;52.282;5.960;2023-06-24T05:25:29;17.60;76.10
77613;DHT22;66777;52.282;5.960;2023-06-24T05:27:54;17.60;75.80
77613;DHT22;66777;52.282;5.960;2023-06-24T05:30:20;17.70;75.90
77613;DHT22;66777;52.282;5.960;2023-06-24T05:32:47;17.80;75.90
77613;DHT22;66777;52.282;5.960;2023-06-24T05:35:25;17.80;75.80
77613;DHT22;66777;52.282;5.960;2023-06-24T05:37:53;17.90;75.90
77613;DHT22;66777;52.282;5.960;2023-06-24T05:40:18;18.00;75.80
77613;DHT22;66777;52.282;5.960;2023-06-24T05:43:15;18.00;75.80
77613;DHT22;66777;52.282;5.960;2023-06-24T05:45:51;18.00;75.90
77613;DHT22;66777;52.282;5.960;2023-06-24T05:48:16;18.10;75.70
77613;DHT22;66777;52.282;5.960;2023-06-24T05:50:42;18.20;75.60
77613;DHT22;66777;52.282;5.960;2023-06-24T05:53:15;18.20;75.70
77613;DHT22;66777;52.282;5.960;2023-06-24T05:55:46;18.20;76.10
77613;DHT22;66777;52.282;5.960;2023-06-24T05:58:11;18.30;76.00
77613;DHT22;66777;52.282;5.960;2023-06-24T06:00:41;18.40;76.10
77613;DHT22;66777;52.282;5.960;2023-06-24T06:03:17;18.40;75.70
77613;DHT22;66777;52.282;5.960;2023-06-24T06:05:43;18.50;75.50
77613;DHT22;66777;52.282;5.960;2023-06-24T06:08:10;18.60;75.40
77613;DHT22;66777;52.282;5.960;2023-06-24T06:10:36;18.60;75.10
77613;DHT22;66777;52.282;5.960;2023-06-24T06:13:02;18.70;74.80
77613;DHT22;66777;52.282;5.960;2023-06-24T06:15:28;18.80;74.80
77613;DHT22;66777;52.282;5.960;2023-06-24T06:18:02;18.90;74.30
77613;DHT22;66777;52.282;5.960;2023-06-24T06:20:28;19.00;74.30
77613;DHT22;66777;52.282;5.960;2023-06-24T06:22:56;19.00;74.20
77613;DHT22;66777;52.282;5.960;2023-06-24T06:25:26;19.10;74.20
77613;DHT22;66777;52.282;5.960;2023-06-24T06:27:52;19.20;74.10
77613;DHT22;66777;52.282;5.960;2023-06-24T06:30:22;19.40;73.70
77613;DHT22;66777;52.282;5.960;2023-06-24T06:32:48;19.50;73.30
77613;DHT22;66777;52.282;5.960;2023-06-24T06:35:14;19.70;73.10
77613;DHT22;66777;52.282;5.960;2023-06-24T06:37:52;19.90;73.20
77613;DHT22;66777;52.282;5.960;2023-06-24T06:40:20;20.50;71.70
77613;DHT22;66777;52.282;5.960;2023-06-24T06:42:56;20.60;70.70
77613;DHT22;66777;52.282;5.960;2023-06-24T06:45:22;20.80;70.80
77613;DHT22;66777;52.282;5.960;2023-06-24T06:47:50;21.10;70.70
77613;DHT22;66777;52.282;5.960;2023-06-24T06:50:25;21.40;69.80
77613;DHT22;66777;52.282;5.960;2023-06-24T06:52:51;21.60;69.30
77613;DHT22;66777;52.282;5.960;2023-06-24T06:55:17;21.70;69.00
77613;DHT22;66777;52.282;5.960;2023-06-24T06:57:53;21.90;68.20
77613;DHT22;66777;52.282;5.960;2023-06-24T07:00:19;21.90;67.50
77613;DHT22;66777;52.282;5.960;2023-06-24T07:03:01;22.00;67.30
77613;DHT22;66777;52.282;5.960;2023-06-24T07:05:34;22.10;67.10
77613;DHT22;66777;52.282;5.960;2023-06-24T07:08:05;22.30;66.70
77613;DHT22;66777;52.282;5.960;2023-06-24T07:10:31;22.50;66.10
77613;DHT22;66777;52.282;5.960;2023-06-24T07:12:56;22.60;65.60
77613;DHT22;66777;52.282;5.960;2023-06-24T07:18:20;22.60;65.70
77613;DHT22;66777;52.282;5.960;2023-06-24T07:20:46;22.50;65.90
77613;DHT22;66777;52.282;5.960;2023-06-24T07:23:14;22.50;65.70
77613;DHT22;66777;52.282;5.960;2023-06-24T07:25:42;22.50;65.00
77613;DHT22;66777;52.282;5.960;2023-06-24T07:28:13;22.50;64.60
77613;DHT22;66777;52.282;5.960;2023-06-24T07:30:40;22.50;63.70
77613;DHT22;66777;52.282;5.960;2023-06-24T07:33:07;22.50;63.70
77613;DHT22;66777;52.282;5.960;2023-06-24T07:35:33;22.60;63.40
77613;DHT22;66777;52.282;5.960;2023-06-24T07:38:00;22.60;63.10
77613;DHT22;66777;52.282;5.960;2023-06-24T07:40:26;22.60;62.70
77613;DHT22;66777;52.282;5.960;2023-06-24T07:42:59;22.60;62.40
77613;DHT22;66777;52.282;5.960;2023-06-24T07:45:26;22.60;61.10
77613;DHT22;66777;52.282;5.960;2023-06-24T07:48:03;22.60;61.30
77613;DHT22;66777;52.282;5.960;2023-06-24T07:50:30;22.50;60.80
77613;DHT22;66777;52.282;5.960;2023-06-24T07:53:04;22.50;61.40
77613;DHT22;66777;52.282;5.960;2023-06-24T07:55:29;22.50;60.90
77613;DHT22;66777;52.282;5.960;2023-06-24T07:57:55;22.60;61.00
77613;DHT22;66777;52.282;5.960;2023-06-24T08:00:21;22.70;60.90
77613;DHT22;66777;52.282;5.960;2023-06-24T08:02:48;22.80;60.40
77613;DHT22;66777;52.282;5.960;2023-06-24T08:05:14;22.90;60.00
77613;DHT22;66777;52.282;5.960;2023-06-24T08:07:44;23.00;59.90
77613;DHT22;66777;52.282;5.960;2023-06-24T08:10:11;23.00;59.50
77613;DHT22;66777;52.282;5.960;2023-06-24T08:12:36;23.00;59.70
77613;DHT22;66777;52.282;5.960;2023-06-24T08:15:14;22.90;59.80
77613;DHT22;66777;52.282;5.960;2023-06-24T08:17:51;22.90;59.50
77613;DHT22;66777;52.282;5.960;2023-06-24T08:20:17;23.00;59.50
77613;DHT22;66777;52.282;5.960;2023-06-24T08:23:02;23.10;59.60
77613;DHT22;66777;52.282;5.960;2023-06-24T08:25:29;23.20;58.80
77613;DHT22;66777;52.282;5.960;2023-06-24T08:27:56;23.40;59.10
77613;DHT22;66777;52.282;5.960;2023-06-24T08:30:27;23.40;59.00
77613;DHT22;66777;52.282;5.960;2023-06-24T08:32:52;23.40;59.00
77613;DHT22;66777;52.282;5.960;2023-06-24T08:35:18;23.40;59.10
77613;DHT22;66777;52.282;5.960;2023-06-24T08:37:44;23.40;59.20
77613;DHT22;66777;52.282;5.960;2023-06-24T08:40:11;23.50;58.70
77613;DHT22;66777;52.282;5.960;2023-06-24T08:42:37;23.60;58.60
77613;DHT22;66777;52.282;5.960;2023-06-24T08:45:19;23.70;58.20
77613;DHT22;66777;52.282;5.960;2023-06-24T08:47:47;23.90;57.70
77613;DHT22;66777;52.282;5.960;2023-06-24T08:50:16;24.00;57.60
77613;DHT22;66777;52.282;5.960;2023-06-24T08:52:44;24.00;57.50
77613;DHT22;66777;52.282;5.960;2023-06-24T08:55:13;24.00;57.00
77613;DHT22;66777;52.282;5.960;2023-06-24T08:57:42;24.00;57.60
77613;DHT22;66777;52.282;5.960;2023-06-24T09:00:09;24.00;57.70
77613;DHT22;66777;52.282;5.960;2023-06-24T09:02:36;24.10;57.50
77613;DHT22;66777;52.282;5.960;2023-06-24T09:05:07;24.20;57.20
77613;DHT22;66777;52.282;5.960;2023-06-24T09:07:33;24.20;57.40
77613;DHT22;66777;52.282;5.960;2023-06-24T09:09:59;24.20;57.50
77613;DHT22;66777;52.282;5.960;2023-06-24T09:12:32;24.20;57.60
77613;DHT22;66777;52.282;5.960;2023-06-24T09:14:59;24.20;57.40
77613;DHT22;66777;52.282;5.960;2023-06-24T09:17:25;24.30;56.90
77613;DHT22;66777;52.282;5.960;2023-06-24T09:19:52;24.40;57.20
77613;DHT22;66777;52.282;5.960;2023-06-24T09:22:18;24.30;57.00
77613;DHT22;66777;52.282;5.960;2023-06-24T09:24:54;24.30;57.10
77613;DHT22;66777;52.282;5.960;2023-06-24T09:27:25;24.30;56.40
77613;DHT22;66777;52.282;5.960;2023-06-24T09:29:59;24.20;57.10
77613;DHT22;66777;52.282;5.960;2023-06-24T09:32:37;24.40;57.10
77613;DHT22;66777;52.282;5.960;2023-06-24T09:35:03;24.40;56.80
77613;DHT22;66777;52.282;5.960;2023-06-24T09:37:32;24.40;57.20
77613;DHT22;66777;52.282;5.960;2023-06-24T09:39:59;24.40;57.30
77613;DHT22;66777;52.282;5.960;2023-06-24T09:42:27;24.60;56.90
77613;DHT22;66777;52.282;5.960;2023-06-24T09:44:56;24.60;56.60
77613;DHT22;66777;52.282;5.960;2023-06-24T09:47:31;24.60;56.50
77613;DHT22;66777;52.282;5.960;2023-06-24T09:50:08;24.60;56.20
77613;DHT22;66777;52.282;5.960;2023-06-24T09:52:34;24.60;56.30
77613;DHT22;66777;52.282;5.960;2023-06-24T09:55:03;24.70;56.40
77613;DHT22;66777;52.282;5.960;2023-06-24T09:57:31;24.80;56.20
77613;DHT22;66777;52.282;5.960;2023-06-24T09:59:58;24.90;55.90
77613;DHT22;66777;52.282;5.960;2023-06-24T10:02:28;25.00;55.60
77613;DHT22;66777;52.282;5.960;2023-06-24T10:05:00;25.00;55.60
77613;DHT22;66777;52.282;5.960;2023-06-24T10:07:28;25.00;55.50
77613;DHT22;66777;52.282;5.960;2023-06-24T10:09:55;25.00;55.50
77613;DHT22;66777;52.282;5.960;2023-06-24T10:12:21;25.10;55.50
77613;DHT22;66777;52.282;5.960;2023-06-24T10:14:54;25.10;55.60
77613;DHT22;66777;52.282;5.960;2023-06-24T10:17:24;25.20;55.50
77613;DHT22;66777;52.282;5.960;2023-06-24T10:19:53;25.30;55.10
77613;DHT22;66777;52.282;5.960;2023-06-24T10:22:40;25.20;55.40
77613;DHT22;66777;52.282;5.960;2023-06-24T10:25:11;25.20;55.60
77613;DHT22;66777;52.282;5.960;2023-06-24T10:28:10;25.30;55.60
77613;DHT22;66777;52.282;5.960;2023-06-24T10:30:36;25.40;55.00
77613;DHT22;66777;52.282;5.960;2023-06-24T10:33:01;25.50;55.30
77613;DHT22;66777;52.282;5.960;2023-06-24T10:35:28;25.50;55.40
77613;DHT22;66777;52.282;5.960;2023-06-24T10:38:00;25.50;55.20
77613;DHT22;66777;52.282;5.960;2023-06-24T10:40:43;25.60;54.40
77613;DHT22;66777;52.282;5.960;2023-06-24T10:43:30;25.80;54.20
77613;DHT22;66777;52.282;5.960;2023-06-24T10:45:57;25.80;52.80
77613;DHT22;66777;52.282;5.960;2023-06-24T10:48:23;26.00;52.90
77613;DHT22;66777;52.282;5.960;2023-06-24T10:50:52;26.10;52.40
77613;DHT22;66777;52.282;5.960;2023-06-24T10:53:18;26.20;52.30
77613;DHT22;66777;52.282;5.960;2023-06-24T10:55:44;26.40;51.90
77613;DHT22;66777;52.282;5.960;2023-06-24T10:58:12;26.40;51.90
77613;DHT22;66777;52.282;5.960;2023-06-24T11:00:39;26.50;51.90
77613;DHT22;66777;52.282;5.960;2023-06-24T11:03:09;26.40;52.10
77613;DHT22;66777;52.282;5.960;2023-06-24T11:05:39;26.50;51.90
77613;DHT22;66777;52.282;5.960;2023-06-24T11:08:06;26.70;51.90
77613;DHT22;66777;52.282;5.960;2023-06-24T11:10:31;26.60;51.70
77613;DHT22;66777;52.282;5.960;2023-06-24T11:12:57;26.60;51.80
77613;DHT22;66777;52.282;5.960;2023-06-24T11:15:24;26.70;51.70
77613;DHT22;66777;52.282;5.960;2023-06-24T11:17:51;26.90;51.60
77613;DHT22;66777;52.282;5.960;2023-06-24T11:20:17;28.10;49.90
77613;DHT22;66777;52.282;5.960;2023-06-24T11:22:43;28.70;48.60
77613;DHT22;66777;52.282;5.960;2023-06-24T11:25:18;29.40;47.60
77613;DHT22;66777;52.282;5.960;2023-06-24T11:27:44;29.70;47.10
77613;DHT22;66777;52.282;5.960;2023-06-24T11:30:11;30.80;46.00
77613;DHT22;66777;52.282;5.960;2023-06-24T11:32:37;32.70;43.40
77613;DHT22;66777;52.282;5.960;2023-06-24T11:35:05;32.00;44.40
77613;DHT22;66777;52.282;5.960;2023-06-24T11:37:32;31.50;45.10
77613;DHT22;66777;52.282;5.960;2023-06-24T11:40:06;30.70;46.40
77613;DHT22;66777;52.282;5.960;2023-06-24T11:42:35;29.50;47.20
77613;DHT22;66777;52.282;5.960;2023-06-24T11:45:03;28.60;48.80
77613;DHT22;66777;52.282;5.960;2023-06-24T11:47:39;28.00;49.70
77613;DHT22;66777;52.282;5.960;2023-06-24T11:50:06;27.80;50.10
77613;DHT22;66777;52.282;5.960;2023-06-24T11:52:52;27.50;50.40
77613;DHT22;66777;52.282;5.960;2023-06-24T11:55:21;27.20;50.40
77613;DHT22;66777;52.282;5.960;2023-06-24T11:57:50;26.90;50.80
77613;DHT22;66777;52.282;5.960;2023-06-24T12:00:20;26.70;51.10
77613;DHT22;66777;52.282;5.960;2023-06-24T12:02:52;26.50;51.50
77613;DHT22;66777;52.282;5.960;2023-06-24T12:05:23;26.40;51.60
77613;DHT22;66777;52.282;5.960;2023-06-24T12:07:54;26.40;51.40
77613;DHT22;66777;52.282;5.960;2023-06-24T12:10:20;26.50;51.50
77613;DHT22;66777;52.282;5.960;2023-06-24T12:12:46;26.60;51.90
77613;DHT22;66777;52.282;5.960;2023-06-24T12:15:11;26.70;51.50
77613;DHT22;66777;52.282;5.960;2023-06-24T12:17:37;26.70;51.80
77613;DHT22;66777;52.282;5.960;2023-06-24T12:20:03;26.50;52.10
77613;DHT22;66777;52.282;5.960;2023-06-24T12:22:28;26.50;52.20
77613;DHT22;66777;52.282;5.960;2023-06-24T12:24:54;26.50;52.60
77613;DHT22;66777;52.282;5.960;2023-06-24T12:27:20;26.50;52.80
77613;DHT22;66777;52.282;5.960;2023-06-24T12:29:45;26.50;52.70
77613;DHT22;66777;52.282;5.960;2023-06-24T12:32:11;26.40;52.60
77613;DHT22;66777;52.282;5.960;2023-06-24T12:34:36;26.20;52.90
77613;DHT22;66777;52.282;5.960;2023-06-24T12:37:02;26.20;53.00
77613;DHT22;66777;52.282;5.960;2023-06-24T12:39:27;26.10;53.30
77613;DHT22;66777;52.282;5.960;2023-06-24T12:41:53;26.10;53.10
77613;DHT22;66777;52.282;5.960;2023-06-24T12:44:18;26.10;53.50
77613;DHT22;66777;52.282;5.960;2023-06-24T12:46:44;26.00;53.70
77613;DHT22;66777;52.282;5.960;2023-06-24T12:49:09;26.10;53.70
77613;DHT22;66777;52.282;5.960;2023-06-24T12:51:35;26.20;53.40
77613;DHT22;66777;52.282;5.960;2023-06-24T12:54:00;26.50;53.10
77613;DHT22;66777;52.282;5.960;2023-06-24T12:56:26;26.80;52.70
77613;DHT22;66777;52.282;5.960;2023-06-24T12:58:51;26.80;52.80
77613;DHT22;66777;52.282;5.960;2023-06-24T13:01:17;26.70;53.00
77613;DHT22;66777;52.282;5.960;2023-06-24T13:03:43;26.60;53.10
77613;DHT22;66777;52.282;5.960;2023-06-24T13:06:09;26.60;53.20
77613;DHT22;66777;52.282;5.960;2023-06-24T13:08:34;26.50;53.20
77613;DHT22;66777;52.282;5.960;2023-06-24T13:11:00;26.40;53.40
77613;DHT22;66777;52.282;5.960;2023-06-24T13:13:25;26.20;53.70
77613;DHT22;66777;52.282;5.960;2023-06-24T13:15:51;26.20;53.80
77613;DHT22;66777;52.282;5.960;2023-06-24T13:18:16;26.10;54.00
77613;DHT22;66777;52.282;5.960;2023-06-24T13:20:43;26.20;54.00
77613;DHT22;66777;52.282;5.960;2023-06-24T13:23:10;26.20;54.00
77613;DHT22;66777;52.282;5.960;2023-06-24T13:25:36;26.40;53.60
77613;DHT22;66777;52.282;5.960;2023-06-24T13:28:02;26.20;53.90
77613;DHT22;66777;52.282;5.960;2023-06-24T13:30:28;26.10;54.00
77613;DHT22;66777;52.282;5.960;2023-06-24T13:32:54;26.00;54.40
77613;DHT22;66777;52.282;5.960;2023-06-24T13:35:20;26.00;54.50
77613;DHT22;66777;52.282;5.960;2023-06-24T13:37:46;26.00;54.60
77613;DHT22;66777;52.282;5.960;2023-06-24T13:40:12;26.00;54.70
77613;DHT22;66777;52.282;5.960;2023-06-24T13:42:38;26.00;54.60
77613;DHT22;66777;52.282;5.960;2023-06-24T13:45:05;26.00;54.70
77613;DHT22;66777;52.282;5.960;2023-06-24T13:47:31;25.90;54.80
77613;DHT22;66777;52.282;5.960;2023-06-24T13:49:57;25.80;55.20
77613;DHT22;66777;52.282;5.960;2023-06-24T13:52:25;25.90;55.30
77613;DHT22;66777;52.282;5.960;2023-06-24T13:54:51;25.80;55.60
77613;DHT22;66777;52.282;5.960;2023-06-24T13:57:16;25.70;55.90
77613;DHT22;66777;52.282;5.960;2023-06-24T13:59:42;25.70;55.90
77613;DHT22;66777;52.282;5.960;2023-06-24T14:02:08;25.80;55.80
77613;DHT22;66777;52.282;5.960;2023-06-24T14:04:34;26.00;55.60
77613;DHT22;66777;52.282;5.960;2023-06-24T14:07:00;26.10;55.20
77613;DHT22;66777;52.282;5.960;2023-06-24T14:09:28;26.10;54.90
77613;DHT22;66777;52.282;5.960;2023-06-24T14:11:54;26.20;54.90
77613;DHT22;66777;52.282;5.960;2023-06-24T14:14:21;26.30;54.90
77613;DHT22;66777;52.282;5.960;2023-06-24T14:16:47;26.30;55.10
77613;DHT22;66777;52.282;5.960;2023-06-24T14:19:12;26.20;55.00
77613;DHT22;66777;52.282;5.960;2023-06-24T14:21:38;26.10;55.00
77613;DHT22;66777;52.282;5.960;2023-06-24T14:24:05;26.20;55.00
77613;DHT22;66777;52.282;5.960;2023-06-24T14:26:32;26.20;54.90
77613;DHT22;66777;52.282;5.960;2023-06-24T14:28:58;26.40;54.70
77613;DHT22;66777;52.282;5.960;2023-06-24T14:31:23;26.60;54.30
77613;DHT22;66777;52.282;5.960;2023-06-24T14:33:49;26.50;54.50
77613;DHT22;66777;52.282;5.960;2023-06-24T14:36:14;26.60;54.30
77613;DHT22;66777;52.282;5.960;2023-06-24T14:38:40;26.70;54.20
77613;DHT22;66777;52.282;5.960;2023-06-24T14:41:08;26.80;53.80
77613;DHT22;66777;52.282;5.960;2023-06-24T14:43:34;26.80;53.60
77613;DHT22;66777;52.282;5.960;2023-06-24T14:45:59;26.80;53.40
77613;DHT22;66777;52.282;5.960;2023-06-24T14:48:25;26.70;53.50
77613;DHT22;66777;52.282;5.960;2023-06-24T14:50:51;26.50;53.90
77613;DHT22;66777;52.282;5.960;2023-06-24T14:53:16;26.40;54.10
77613;DHT22;66777;52.282;5.960;2023-06-24T14:55:42;26.40;54.40
77613;DHT22;66777;52.282;5.960;2023-06-24T14:58:07;26.40;54.50
77613;DHT22;66777;52.282;5.960;2023-06-24T15:00:33;26.40;54.20
77613;DHT22;66777;52.282;5.960;2023-06-24T15:02:59;26.80;53.70
77613;DHT22;66777;52.282;5.960;2023-06-24T15:05:24;27.00;53.00
77613;DHT22;66777;52.282;5.960;2023-06-24T15:07:50;27.00;53.00
77613;DHT22;66777;52.282;5.960;2023-06-24T15:10:15;27.00;52.90
77613;DHT22;66777;52.282;5.960;2023-06-24T15:12:41;26.90;52.70
77613;DHT22;66777;52.282;5.960;2023-06-24T15:15:07;26.80;53.00
77613;DHT22;66777;52.282;5.960;2023-06-24T15:17:33;26.70;53.20
77613;DHT22;66777;52.282;5.960;2023-06-24T15:20:00;26.60;53.40
77613;DHT22;66777;52.282;5.960;2023-06-24T15:22:26;26.60;53.60
77613;DHT22;66777;52.282;5.960;2023-06-24T15:24:52;26.60;53.70
77613;DHT22;66777;52.282;5.960;2023-06-24T15:27:17;26.50;54.10
77613;DHT22;66777;52.282;5.960;2023-06-24T15:29:43;26.40;54.30
77613;DHT22;66777;52.282;5.960;2023-06-24T15:32:08;26.40;54.10
77613;DHT22;66777;52.282;5.960;2023-06-24T15:34:34;26.40;54.10
77613;DHT22;66777;52.282;5.960;2023-06-24T15:37:00;26.40;54.20
77613;DHT22;66777;52.282;5.960;2023-06-24T15:39:25;26.50;54.10
77613;DHT22;66777;52.282;5.960;2023-06-24T15:41:51;26.60;54.00
77613;DHT22;66777;52.282;5.960;2023-06-24T15:44:17;26.60;53.90
77613;DHT22;66777;52.282;5.960;2023-06-24T15:46:42;26.60;53.70
77613;DHT22;66777;52.282;5.960;2023-06-24T15:49:13;26.50;53.80
77613;DHT22;66777;52.282;5.960;2023-06-24T15:51:39;26.60;53.60
77613;DHT22;66777;52.282;5.960;2023-06-24T15:54:04;26.70;53.30
77613;DHT22;66777;52.282;5.960;2023-06-24T15:56:30;26.60;53.30
77613;DHT22;66777;52.282;5.960;2023-06-24T15:58:55;26.60;53.10
77613;DHT22;66777;52.282;5.960;2023-06-24T16:01:21;26.60;53.20
77613;DHT22;66777;52.282;5.960;2023-06-24T16:03:47;26.50;53.30
77613;DHT22;66777;52.282;5.960;2023-06-24T16:06:12;26.50;53.60
77613;DHT22;66777;52.282;5.960;2023-06-24T16:08:38;26.50;53.70